sensor_id;sensor_type;location;lat;lon;timestamp;temperature;humidity
28845;DHT22;15976;47.938;7.758;2024-03-07T00:00:11;9.60;76.80
28845;DHT22;15976;47.938;7.758;2024-03-07T00:02:46;9.60;77.00
28845;DHT22;15976;47.938;7.758;2024-03-07T00:05:19;9.60;77.00
28845;DHT22;15976;47.938;7.758;2024-03-07T00:07:47;9.60;77.10
28845;DHT22;15976;47.938;7.758;2024-03-07T00:10:14;9.60;77.20
28845;DHT22;15976;47.938;7.758;2024-03-07T00:12:43;9.60;77.20
28845;DHT22;15976;47.938;7.758;2024-03-07T00:15:11;9.60;77.10
28845;DHT22;15976;47.938;7.758;2024-03-07T00:17:41;9.60;77.20
28845;DHT22;15976;47.938;7.758;2024-03-07T00:20:09;9.60;77.30
28845;DHT22;15976;47.938;7.758;2024-03-07T00:22:41;9.60;77.30
28845;DHT22;15976;47.938;7.758;2024-03-07T00:25:09;9.60;77.40
28845;DHT22;15976;47.938;7.758;2024-03-07T00:27:37;9.60;77.40
28845;DHT22;15976;47.938;7.758;2024-03-07T00:30:07;9.60;77.50
28845;DHT22;15976;47.938;7.758;2024-03-07T00:32:40;9.60;77.30
28845;DHT22;15976;47.938;7.758;2024-03-07T00:35:08;9.60;77.30
28845;DHT22;15976;47.938;7.758;2024-03-07T00:37:38;9.50;77.40
28845;DHT22;15976;47.938;7.758;2024-03-07T00:40:06;9.50;77.40
28845;DHT22;15976;47.938;7.758;2024-03-07T00:42:33;9.50;77.30
28845;DHT22;15976;47.938;7.758;2024-03-07T00:45:01;9.50;77.30
28845;DHT22;15976;47.938;7.758;2024-03-07T00:47:28;9.50;77.30
28845;DHT22;15976;47.938;7.758;2024-03-07T00:49:56;9.50;77.30
28845;DHT22;15976;47.938;7.758;2024-03-07T00:52:23;9.40;77.20
28845;DHT22;15976;47.938;7.758;2024-03-07T00:54:50;9.40;77.20
28845;DHT22;15976;47.938;7.758;2024-03-07T00:57:17;9.40;77.30
28845;DHT22;15976;47.938;7.758;2024-03-07T00:59:44;9.40;77.40
28845;DHT22;15976;47.938;7.758;2024-03-07T01:02:11;9.40;77.20
28845;DHT22;15976;47.938;7.758;2024-03-07T01:04:38;9.30;77.10
28845;DHT22;15976;47.938;7.758;2024-03-07T01:07:05;9.30;77.10
28845;DHT22;15976;47.938;7.758;2024-03-07T01:09:32;9.30;77.10
28845;DHT22;15976;47.938;7.758;2024-03-07T01:12:02;9.20;77.10
28845;DHT22;15976;47.938;7.758;2024-03-07T01:14:33;9.20;77.10
28845;DHT22;15976;47.938;7.758;2024-03-07T01:17:00;9.20;77.10
28845;DHT22;15976;47.938;7.758;2024-03-07T01:19:27;9.20;77.20
28845;DHT22;15976;47.938;7.758;2024-03-07T01:21:54;9.20;77.10
28845;DHT22;15976;47.938;7.758;2024-03-07T01:24:21;9.10;77.00
28845;DHT22;15976;47.938;7.758;2024-03-07T01:26:49;9.10;77.00
28845;DHT22;15976;47.938;7.758;2024-03-07T01:29:17;9.10;77.10
28845;DHT22;15976;47.938;7.758;2024-03-07T01:31:44;9.00;76.90
28845;DHT22;15976;47.938;7.758;2024-03-07T01:34:11;9.00;76.90
28845;DHT22;15976;47.938;7.758;2024-03-07T01:36:38;9.00;76.90
28845;DHT22;15976;47.938;7.758;2024-03-07T01:39:05;9.00;77.00
28845;DHT22;15976;47.938;7.758;2024-03-07T01:41:34;8.90;77.10
28845;DHT22;15976;47.938;7.758;2024-03-07T01:44:01;8.90;77.20
28845;DHT22;15976;47.938;7.758;2024-03-07T01:46:29;8.90;77.20
28845;DHT22;15976;47.938;7.758;2024-03-07T01:48:57;8.90;77.40
28845;DHT22;15976;47.938;7.758;2024-03-07T01:51:25;8.90;77.30
28845;DHT22;15976;47.938;7.758;2024-03-07T01:53:52;8.90;77.20
28845;DHT22;15976;47.938;7.758;2024-03-07T01:56:21;8.80;77.10
28845;DHT22;15976;47.938;7.758;2024-03-07T01:58:49;8.90;77.30
28845;DHT22;15976;47.938;7.758;2024-03-07T02:01:18;8.80;77.10
28845;DHT22;15976;47.938;7.758;2024-03-07T02:03:45;8.80;77.20
28845;DHT22;15976;47.938;7.758;2024-03-07T02:06:12;8.80;77.30
28845;DHT22;15976;47.938;7.758;2024-03-07T02:08:39;8.80;77.20
28845;DHT22;15976;47.938;7.758;2024-03-07T02:11:07;8.80;77.10
28845;DHT22;15976;47.938;7.758;2024-03-07T02:13:34;8.70;77.00
28845;DHT22;15976;47.938;7.758;2024-03-07T02:16:02;8.70;77.00
28845;DHT22;15976;47.938;7.758;2024-03-07T02:18:29;8.70;76.90
28845;DHT22;15976;47.938;7.758;2024-03-07T02:20:56;8.70;76.70
28845;DHT22;15976;47.938;7.758;2024-03-07T02:23:23;8.60;76.80
28845;DHT22;15976;47.938;7.758;2024-03-07T02:25:50;8.70;76.90
28845;DHT22;15976;47.938;7.758;2024-03-07T02:28:17;8.70;76.80
28845;DHT22;15976;47.938;7.758;2024-03-07T02:30:44;8.70;76.60
28845;DHT22;15976;47.938;7.758;2024-03-07T02:33:13;8.60;76.60
28845;DHT22;15976;47.938;7.758;2024-03-07T02:35:40;8.60;76.60
28845;DHT22;15976;47.938;7.758;2024-03-07T02:38:07;8.60;76.50
28845;DHT22;15976;47.938;7.758;2024-03-07T02:40:35;8.60;76.60
28845;DHT22;15976;47.938;7.758;2024-03-07T02:43:02;8.60;76.60
28845;DHT22;15976;47.938;7.758;2024-03-07T02:45:33;8.50;76.60
28845;DHT22;15976;47.938;7.758;2024-03-07T02:48:00;8.50;76.70
28845;DHT22;15976;47.938;7.758;2024-03-07T02:50:27;8.50;76.70
28845;DHT22;15976;47.938;7.758;2024-03-07T02:52:54;8.50;76.80
28845;DHT22;15976;47.938;7.758;2024-03-07T02:55:21;8.50;76.70
28845;DHT22;15976;47.938;7.758;2024-03-07T02:57:48;8.40;76.90
28845;DHT22;15976;47.938;7.758;2024-03-07T03:00:15;8.40;77.00
28845;DHT22;15976;47.938;7.758;2024-03-07T03:02:47;8.40;77.10
28845;DHT22;15976;47.938;7.758;2024-03-07T03:05:15;8.40;77.10
28845;DHT22;15976;47.938;7.758;2024-03-07T03:07:43;8.40;78.00
28845;DHT22;15976;47.938;7.758;2024-03-07T03:10:24;8.40;77.50
28845;DHT22;15976;47.938;7.758;2024-03-07T03:12:54;8.30;77.60
28845;DHT22;15976;47.938;7.758;2024-03-07T03:15:22;8.30;77.60
28845;DHT22;15976;47.938;7.758;2024-03-07T03:17:50;8.20;77.80
28845;DHT22;15976;47.938;7.758;2024-03-07T03:20:18;8.20;78.10
28845;DHT22;15976;47.938;7.758;2024-03-07T03:22:53;8.10;78.20
28845;DHT22;15976;47.938;7.758;2024-03-07T03:25:41;8.10;78.50
28845;DHT22;15976;47.938;7.758;2024-03-07T03:28:09;8.10;78.80
28845;DHT22;15976;47.938;7.758;2024-03-07T03:30:40;8.10;78.90
28845;DHT22;15976;47.938;7.758;2024-03-07T03:33:08;8.10;79.00
28845;DHT22;15976;47.938;7.758;2024-03-07T03:35:37;8.00;78.90
28845;DHT22;15976;47.938;7.758;2024-03-07T03:38:05;8.00;79.20
28845;DHT22;15976;47.938;7.758;2024-03-07T03:40:34;7.90;79.20
28845;DHT22;15976;47.938;7.758;2024-03-07T03:43:01;7.90;79.40
28845;DHT22;15976;47.938;7.758;2024-03-07T03:45:28;7.80;79.50
28845;DHT22;15976;47.938;7.758;2024-03-07T03:47:55;7.70;79.50
28845;DHT22;15976;47.938;7.758;2024-03-07T03:50:22;7.70;79.90
28845;DHT22;15976;47.938;7.758;2024-03-07T03:52:50;7.60;80.00
28845;DHT22;15976;47.938;7.758;2024-03-07T03:55:17;7.50;80.30
28845;DHT22;15976;47.938;7.758;2024-03-07T03:57:45;7.50;80.50
28845;DHT22;15976;47.938;7.758;2024-03-07T04:00:16;7.40;80.60
28845;DHT22;15976;47.938;7.758;2024-03-07T04:02:45;7.30;80.90
28845;DHT22;15976;47.938;7.758;2024-03-07T04:05:17;7.30;81.20
28845;DHT22;15976;47.938;7.758;2024-03-07T04:07:44;7.30;81.40
28845;DHT22;15976;47.938;7.758;2024-03-07T04:10:12;7.20;81.40
28845;DHT22;15976;47.938;7.758;2024-03-07T04:12:40;7.20;81.50
28845;DHT22;15976;47.938;7.758;2024-03-07T04:15:10;7.20;81.50
28845;DHT22;15976;47.938;7.758;2024-03-07T04:17:37;7.20;81.70
28845;DHT22;15976;47.938;7.758;2024-03-07T04:20:06;7.20;81.70
28845;DHT22;15976;47.938;7.758;2024-03-07T04:22:34;7.10;81.40
28845;DHT22;15976;47.938;7.758;2024-03-07T04:25:01;7.10;81.40
28845;DHT22;15976;47.938;7.758;2024-03-07T04:27:29;7.00;81.60
28845;DHT22;15976;47.938;7.758;2024-03-07T04:29:56;7.00;81.70
28845;DHT22;15976;47.938;7.758;2024-03-07T04:32:23;7.00;81.20
28845;DHT22;15976;47.938;7.758;2024-03-07T04:34:50;7.00;80.80
28845;DHT22;15976;47.938;7.758;2024-03-07T04:37:17;6.90;81.10
28845;DHT22;15976;47.938;7.758;2024-03-07T04:39:44;6.90;81.20
28845;DHT22;15976;47.938;7.758;2024-03-07T04:42:12;6.90;81.10
28845;DHT22;15976;47.938;7.758;2024-03-07T04:44:40;6.90;81.20
28845;DHT22;15976;47.938;7.758;2024-03-07T04:47:07;6.90;81.10
28845;DHT22;15976;47.938;7.758;2024-03-07T04:49:35;6.80;81.00
28845;DHT22;15976;47.938;7.758;2024-03-07T04:52:03;6.80;80.90
28845;DHT22;15976;47.938;7.758;2024-03-07T04:54:30;6.60;80.40
28845;DHT22;15976;47.938;7.758;2024-03-07T04:57:01;6.50;80.60
28845;DHT22;15976;47.938;7.758;2024-03-07T04:59:28;6.40;81.30
28845;DHT22;15976;47.938;7.758;2024-03-07T05:01:56;6.40;81.50
28845;DHT22;15976;47.938;7.758;2024-03-07T05:04:23;6.40;82.00
28845;DHT22;15976;47.938;7.758;2024-03-07T05:06:50;6.50;82.00
28845;DHT22;15976;47.938;7.758;2024-03-07T05:09:17;6.50;82.00
28845;DHT22;15976;47.938;7.758;2024-03-07T05:11:52;6.50;82.10
28845;DHT22;15976;47.938;7.758;2024-03-07T05:14:20;6.60;82.00
28845;DHT22;15976;47.938;7.758;2024-03-07T05:16:49;6.60;82.00
28845;DHT22;15976;47.938;7.758;2024-03-07T05:19:35;6.60;82.10
28845;DHT22;15976;47.938;7.758;2024-03-07T05:22:05;6.60;82.10
28845;DHT22;15976;47.938;7.758;2024-03-07T05:24:33;6.60;82.10
28845;DHT22;15976;47.938;7.758;2024-03-07T05:27:03;6.60;82.50
28845;DHT22;15976;47.938;7.758;2024-03-07T05:29:30;6.60;82.50
28845;DHT22;15976;47.938;7.758;2024-03-07T05:32:24;6.60;82.60
28845;DHT22;15976;47.938;7.758;2024-03-07T05:34:52;6.70;82.70
28845;DHT22;15976;47.938;7.758;2024-03-07T05:37:22;6.80;82.60
28845;DHT22;15976;47.938;7.758;2024-03-07T05:39:52;6.90;82.30
28845;DHT22;15976;47.938;7.758;2024-03-07T05:42:19;7.00;82.00
28845;DHT22;15976;47.938;7.758;2024-03-07T05:44:47;7.10;81.60
28845;DHT22;15976;47.938;7.758;2024-03-07T05:47:14;7.10;80.90
28845;DHT22;15976;47.938;7.758;2024-03-07T05:49:41;7.10;80.80
28845;DHT22;15976;47.938;7.758;2024-03-07T05:52:09;7.10;80.90
28845;DHT22;15976;47.938;7.758;2024-03-07T05:54:36;7.20;80.90
28845;DHT22;15976;47.938;7.758;2024-03-07T05:57:03;7.20;80.80
28845;DHT22;15976;47.938;7.758;2024-03-07T05:59:32;7.30;80.80
28845;DHT22;15976;47.938;7.758;2024-03-07T06:02:00;7.40;80.80
28845;DHT22;15976;47.938;7.758;2024-03-07T06:04:27;7.50;80.70
28845;DHT22;15976;47.938;7.758;2024-03-07T06:06:56;7.50;80.50
28845;DHT22;15976;47.938;7.758;2024-03-07T06:09:23;7.60;80.40
28845;DHT22;15976;47.938;7.758;2024-03-07T06:11:50;7.60;80.20
28845;DHT22;15976;47.938;7.758;2024-03-07T06:14:18;7.60;80.10
28845;DHT22;15976;47.938;7.758;2024-03-07T06:16:46;7.70;80.20
28845;DHT22;15976;47.938;7.758;2024-03-07T06:19:13;7.70;80.10
28845;DHT22;15976;47.938;7.758;2024-03-07T06:21:41;7.80;80.00
28845;DHT22;15976;47.938;7.758;2024-03-07T06:24:08;7.80;79.90
28845;DHT22;15976;47.938;7.758;2024-03-07T06:26:38;7.90;79.90
28845;DHT22;15976;47.938;7.758;2024-03-07T06:29:17;7.90;79.90
28845;DHT22;15976;47.938;7.758;2024-03-07T06:31:45;7.90;79.60
28845;DHT22;15976;47.938;7.758;2024-03-07T06:34:17;7.90;79.70
28845;DHT22;15976;47.938;7.758;2024-03-07T06:36:44;8.00;79.80
28845;DHT22;15976;47.938;7.758;2024-03-07T06:39:11;8.00;79.90
28845;DHT22;15976;47.938;7.758;2024-03-07T06:41:40;8.00;79.80
28845;DHT22;15976;47.938;7.758;2024-03-07T06:44:07;8.10;79.80
28845;DHT22;15976;47.938;7.758;2024-03-07T06:46:37;8.10;79.80
28845;DHT22;15976;47.938;7.758;2024-03-07T06:49:04;8.20;79.80
28845;DHT22;15976;47.938;7.758;2024-03-07T06:51:37;8.20;79.70
28845;DHT22;15976;47.938;7.758;2024-03-07T06:54:06;8.30;79.50
28845;DHT22;15976;47.938;7.758;2024-03-07T06:56:33;8.30;79.20
28845;DHT22;15976;47.938;7.758;2024-03-07T06:59:01;8.30;79.30
28845;DHT22;15976;47.938;7.758;2024-03-07T07:01:31;8.40;79.10
28845;DHT22;15976;47.938;7.758;2024-03-07T07:04:00;8.40;79.10
28845;DHT22;15976;47.938;7.758;2024-03-07T07:06:31;8.40;79.00
28845;DHT22;15976;47.938;7.758;2024-03-07T07:08:58;8.50;78.80
28845;DHT22;15976;47.938;7.758;2024-03-07T07:11:26;8.50;78.50
28845;DHT22;15976;47.938;7.758;2024-03-07T07:13:59;8.50;78.80
28845;DHT22;15976;47.938;7.758;2024-03-07T07:16:26;8.50;78.80
28845;DHT22;15976;47.938;7.758;2024-03-07T07:18:54;8.50;78.90
28845;DHT22;15976;47.938;7.758;2024-03-07T07:21:22;8.60;79.00
28845;DHT22;15976;47.938;7.758;2024-03-07T07:23:49;8.70;79.00
28845;DHT22;15976;47.938;7.758;2024-03-07T07:26:16;8.70;78.60
28845;DHT22;15976;47.938;7.758;2024-03-07T07:28:44;8.80;78.30
28845;DHT22;15976;47.938;7.758;2024-03-07T07:31:11;8.90;78.20
28845;DHT22;15976;47.938;7.758;2024-03-07T07:33:38;9.00;77.90
28845;DHT22;15976;47.938;7.758;2024-03-07T07:36:05;9.00;77.70
28845;DHT22;15976;47.938;7.758;2024-03-07T07:38:33;9.10;77.70
28845;DHT22;15976;47.938;7.758;2024-03-07T07:41:00;9.10;77.70
28845;DHT22;15976;47.938;7.758;2024-03-07T07:43:27;9.10;77.70
28845;DHT22;15976;47.938;7.758;2024-03-07T07:46:08;9.20;77.70
28845;DHT22;15976;47.938;7.758;2024-03-07T07:48:35;9.20;77.50
28845;DHT22;15976;47.938;7.758;2024-03-07T07:51:03;9.20;77.50
28845;DHT22;15976;47.938;7.758;2024-03-07T07:53:32;9.10;77.40
28845;DHT22;15976;47.938;7.758;2024-03-07T07:55:59;9.10;77.50
28845;DHT22;15976;47.938;7.758;2024-03-07T07:58:26;9.10;77.70
28845;DHT22;15976;47.938;7.758;2024-03-07T08:00:55;9.10;77.70
28845;DHT22;15976;47.938;7.758;2024-03-07T08:03:23;9.10;77.60
28845;DHT22;15976;47.938;7.758;2024-03-07T08:05:50;9.10;77.70
28845;DHT22;15976;47.938;7.758;2024-03-07T08:08:17;9.10;77.70
28845;DHT22;15976;47.938;7.758;2024-03-07T08:10:46;9.20;77.50
28845;DHT22;15976;47.938;7.758;2024-03-07T08:13:15;9.30;77.20
28845;DHT22;15976;47.938;7.758;2024-03-07T08:15:42;9.30;77.00
28845;DHT22;15976;47.938;7.758;2024-03-07T08:18:10;9.30;76.80
28845;DHT22;15976;47.938;7.758;2024-03-07T08:20:39;9.30;76.70
28845;DHT22;15976;47.938;7.758;2024-03-07T08:23:08;9.30;76.70
28845;DHT22;15976;47.938;7.758;2024-03-07T08:25:37;9.30;76.70
28845;DHT22;15976;47.938;7.758;2024-03-07T08:28:07;9.40;76.70
28845;DHT22;15976;47.938;7.758;2024-03-07T08:30:34;9.40;76.60
28845;DHT22;15976;47.938;7.758;2024-03-07T08:33:02;9.40;76.30
28845;DHT22;15976;47.938;7.758;2024-03-07T08:35:33;9.50;76.30
28845;DHT22;15976;47.938;7.758;2024-03-07T08:38:01;9.40;76.10
28845;DHT22;15976;47.938;7.758;2024-03-07T08:40:30;9.50;76.20
28845;DHT22;15976;47.938;7.758;2024-03-07T08:43:02;9.50;76.00
28845;DHT22;15976;47.938;7.758;2024-03-07T08:45:31;9.60;76.00
28845;DHT22;15976;47.938;7.758;2024-03-07T08:48:03;9.60;75.80
28845;DHT22;15976;47.938;7.758;2024-03-07T08:50:36;9.70;75.40
28845;DHT22;15976;47.938;7.758;2024-03-07T08:53:06;9.70;75.30
28845;DHT22;15976;47.938;7.758;2024-03-07T08:55:34;9.70;75.20
28845;DHT22;15976;47.938;7.758;2024-03-07T08:58:04;9.80;75.10
28845;DHT22;15976;47.938;7.758;2024-03-07T09:00:35;9.80;74.90
28845;DHT22;15976;47.938;7.758;2024-03-07T09:03:06;9.80;74.60
28845;DHT22;15976;47.938;7.758;2024-03-07T09:05:39;9.80;74.50
28845;DHT22;15976;47.938;7.758;2024-03-07T09:08:07;9.90;74.40
28845;DHT22;15976;47.938;7.758;2024-03-07T09:10:35;9.90;74.50
28845;DHT22;15976;47.938;7.758;2024-03-07T09:13:03;10.00;74.60
28845;DHT22;15976;47.938;7.758;2024-03-07T09:15:30;10.00;74.40
28845;DHT22;15976;47.938;7.758;2024-03-07T09:18:00;10.10;74.90
28845;DHT22;15976;47.938;7.758;2024-03-07T09:20:28;10.10;74.10
28845;DHT22;15976;47.938;7.758;2024-03-07T09:22:58;10.10;73.80
28845;DHT22;15976;47.938;7.758;2024-03-07T09:25:27;10.10;73.80
28845;DHT22;15976;47.938;7.758;2024-03-07T09:27:55;10.10;74.20
28845;DHT22;15976;47.938;7.758;2024-03-07T09:30:22;10.20;74.10
28845;DHT22;15976;47.938;7.758;2024-03-07T09:32:56;10.20;73.70
28845;DHT22;15976;47.938;7.758;2024-03-07T09:35:24;10.30;73.50
28845;DHT22;15976;47.938;7.758;2024-03-07T09:37:52;10.30;73.30
28845;DHT22;15976;47.938;7.758;2024-03-07T09:40:21;10.30;73.20
28845;DHT22;15976;47.938;7.758;2024-03-07T09:42:56;10.30;73.10
28845;DHT22;15976;47.938;7.758;2024-03-07T09:45:29;10.30;73.10
28845;DHT22;15976;47.938;7.758;2024-03-07T09:47:57;10.30;73.10
28845;DHT22;15976;47.938;7.758;2024-03-07T09:50:26;10.30;73.20
28845;DHT22;15976;47.938;7.758;2024-03-07T09:52:56;10.30;73.00
28845;DHT22;15976;47.938;7.758;2024-03-07T09:55:25;10.40;73.00
28845;DHT22;15976;47.938;7.758;2024-03-07T09:57:54;10.40;72.90
28845;DHT22;15976;47.938;7.758;2024-03-07T10:00:24;10.40;73.20
28845;DHT22;15976;47.938;7.758;2024-03-07T10:02:57;10.40;72.20
28845;DHT22;15976;47.938;7.758;2024-03-07T10:05:27;10.40;72.30
28845;DHT22;15976;47.938;7.758;2024-03-07T10:07:55;10.40;72.20
28845;DHT22;15976;47.938;7.758;2024-03-07T10:10:25;10.40;72.20
28845;DHT22;15976;47.938;7.758;2024-03-07T10:12:53;10.50;72.10
28845;DHT22;15976;47.938;7.758;2024-03-07T10:15:20;10.50;72.00
28845;DHT22;15976;47.938;7.758;2024-03-07T10:17:49;10.40;72.10
28845;DHT22;15976;47.938;7.758;2024-03-07T10:20:18;10.50;72.20
28845;DHT22;15976;47.938;7.758;2024-03-07T10:22:49;10.40;72.10
28845;DHT22;15976;47.938;7.758;2024-03-07T10:25:17;10.40;72.30
28845;DHT22;15976;47.938;7.758;2024-03-07T10:27:48;10.30;72.30
28845;DHT22;15976;47.938;7.758;2024-03-07T10:30:16;10.20;72.80
28845;DHT22;15976;47.938;7.758;2024-03-07T10:32:52;10.20;73.30
28845;DHT22;15976;47.938;7.758;2024-03-07T10:35:26;10.20;73.40
28845;DHT22;15976;47.938;7.758;2024-03-07T10:37:58;10.10;73.20
28845;DHT22;15976;47.938;7.758;2024-03-07T10:40:34;10.10;73.10
28845;DHT22;15976;47.938;7.758;2024-03-07T10:43:10;10.10;73.20
28845;DHT22;15976;47.938;7.758;2024-03-07T10:45:46;10.20;73.20
28845;DHT22;15976;47.938;7.758;2024-03-07T10:48:19;10.30;73.10
28845;DHT22;15976;47.938;7.758;2024-03-07T10:51:20;10.30;73.00
28845;DHT22;15976;47.938;7.758;2024-03-07T10:59:21;10.50;72.50
28845;DHT22;15976;47.938;7.758;2024-03-07T11:04:56;10.50;72.40
28845;DHT22;15976;47.938;7.758;2024-03-07T11:07:24;10.60;72.50
28845;DHT22;15976;47.938;7.758;2024-03-07T11:09:55;10.60;72.30
28845;DHT22;15976;47.938;7.758;2024-03-07T11:12:23;10.70;72.10
28845;DHT22;15976;47.938;7.758;2024-03-07T11:14:52;10.70;71.80
28845;DHT22;15976;47.938;7.758;2024-03-07T11:17:21;10.80;71.60
28845;DHT22;15976;47.938;7.758;2024-03-07T11:19:49;10.80;71.40
28845;DHT22;15976;47.938;7.758;2024-03-07T11:22:29;10.90;71.40
28845;DHT22;15976;47.938;7.758;2024-03-07T11:25:06;11.00;71.50
28845;DHT22;15976;47.938;7.758;2024-03-07T11:27:39;11.10;71.10
28845;DHT22;15976;47.938;7.758;2024-03-07T11:30:07;11.30;70.70
28845;DHT22;15976;47.938;7.758;2024-03-07T11:32:38;11.50;70.30
28845;DHT22;15976;47.938;7.758;2024-03-07T11:35:12;11.70;69.70
28845;DHT22;15976;47.938;7.758;2024-03-07T11:37:44;11.90;69.00
28845;DHT22;15976;47.938;7.758;2024-03-07T11:43:01;12.20;67.30
28845;DHT22;15976;47.938;7.758;2024-03-07T11:45:35;12.20;67.00
28845;DHT22;15976;47.938;7.758;2024-03-07T11:48:11;12.30;66.70
28845;DHT22;15976;47.938;7.758;2024-03-07T11:50:40;12.50;66.50
28845;DHT22;15976;47.938;7.758;2024-03-07T11:53:08;12.50;66.20
28845;DHT22;15976;47.938;7.758;2024-03-07T11:55:37;12.60;65.90
28845;DHT22;15976;47.938;7.758;2024-03-07T12:00:44;12.70;65.70
28845;DHT22;15976;47.938;7.758;2024-03-07T12:03:13;12.70;65.50
28845;DHT22;15976;47.938;7.758;2024-03-07T12:05:41;12.80;65.30
28845;DHT22;15976;47.938;7.758;2024-03-07T12:08:10;12.90;64.90
28845;DHT22;15976;47.938;7.758;2024-03-07T12:10:41;13.00;64.30
28845;DHT22;15976;47.938;7.758;2024-03-07T12:13:15;13.10;63.90
28845;DHT22;15976;47.938;7.758;2024-03-07T12:15:43;13.20;63.50
28845;DHT22;15976;47.938;7.758;2024-03-07T12:18:11;13.40;63.00
28845;DHT22;15976;47.938;7.758;2024-03-07T12:20:43;13.60;62.40
28845;DHT22;15976;47.938;7.758;2024-03-07T12:23:17;13.80;61.70
28845;DHT22;15976;47.938;7.758;2024-03-07T12:25:47;14.00;61.40
28845;DHT22;15976;47.938;7.758;2024-03-07T12:28:14;14.20;61.10
28845;DHT22;15976;47.938;7.758;2024-03-07T12:30:49;14.30;60.60
28845;DHT22;15976;47.938;7.758;2024-03-07T12:33:20;14.10;59.80
28845;DHT22;15976;47.938;7.758;2024-03-07T12:35:48;13.50;60.30
28845;DHT22;15976;47.938;7.758;2024-03-07T12:38:19;13.00;61.60
28845;DHT22;15976;47.938;7.758;2024-03-07T12:41:07;12.60;63.00
28845;DHT22;15976;47.938;7.758;2024-03-07T12:43:40;12.30;63.90
28845;DHT22;15976;47.938;7.758;2024-03-07T12:46:12;12.00;64.70
28845;DHT22;15976;47.938;7.758;2024-03-07T12:48:42;11.80;65.60
28845;DHT22;15976;47.938;7.758;2024-03-07T12:51:13;11.70;66.10
28845;DHT22;15976;47.938;7.758;2024-03-07T12:53:46;11.70;66.40
28845;DHT22;15976;47.938;7.758;2024-03-07T12:56:14;11.70;66.20
28845;DHT22;15976;47.938;7.758;2024-03-07T12:58:47;11.70;66.50
28845;DHT22;15976;47.938;7.758;2024-03-07T13:01:18;11.70;66.40
28845;DHT22;15976;47.938;7.758;2024-03-07T13:03:46;11.70;66.10
28845;DHT22;15976;47.938;7.758;2024-03-07T13:06:15;11.70;66.20
28845;DHT22;15976;47.938;7.758;2024-03-07T13:08:47;11.80;66.20
28845;DHT22;15976;47.938;7.758;2024-03-07T13:11:14;11.90;66.30
28845;DHT22;15976;47.938;7.758;2024-03-07T13:13:42;12.00;66.10
28845;DHT22;15976;47.938;7.758;2024-03-07T13:16:10;12.10;65.60
28845;DHT22;15976;47.938;7.758;2024-03-07T13:18:38;12.30;65.50
28845;DHT22;15976;47.938;7.758;2024-03-07T13:21:05;12.40;65.50
28845;DHT22;15976;47.938;7.758;2024-03-07T13:23:37;12.50;65.40
28845;DHT22;15976;47.938;7.758;2024-03-07T13:26:07;12.70;65.20
28845;DHT22;15976;47.938;7.758;2024-03-07T13:28:44;13.00;64.60
28845;DHT22;15976;47.938;7.758;2024-03-07T13:31:14;13.20;63.70
28845;DHT22;15976;47.938;7.758;2024-03-07T13:33:44;13.30;62.60
28845;DHT22;15976;47.938;7.758;2024-03-07T13:36:13;13.30;62.00
28845;DHT22;15976;47.938;7.758;2024-03-07T13:38:41;13.20;62.10
28845;DHT22;15976;47.938;7.758;2024-03-07T13:41:08;13.20;62.20
28845;DHT22;15976;47.938;7.758;2024-03-07T13:43:38;13.20;62.60
28845;DHT22;15976;47.938;7.758;2024-03-07T13:46:05;13.40;62.80
28845;DHT22;15976;47.938;7.758;2024-03-07T13:48:33;13.70;62.90
28845;DHT22;15976;47.938;7.758;2024-03-07T13:51:04;13.90;62.00
28845;DHT22;15976;47.938;7.758;2024-03-07T13:53:35;14.20;61.20
28845;DHT22;15976;47.938;7.758;2024-03-07T13:56:28;14.30;60.40
28845;DHT22;15976;47.938;7.758;2024-03-07T14:13:27;14.40;58.80
28845;DHT22;15976;47.938;7.758;2024-03-07T14:19:42;14.10;59.00
28845;DHT22;15976;47.938;7.758;2024-03-07T14:26:02;13.70;59.40
28845;DHT22;15976;47.938;7.758;2024-03-07T14:31:08;13.60;59.80
28845;DHT22;15976;47.938;7.758;2024-03-07T14:36:44;13.60;59.90
28845;DHT22;15976;47.938;7.758;2024-03-07T14:39:13;13.70;59.70
28845;DHT22;15976;47.938;7.758;2024-03-07T14:41:58;13.80;59.80
28845;DHT22;15976;47.938;7.758;2024-03-07T14:44:25;13.90;59.80
28845;DHT22;15976;47.938;7.758;2024-03-07T14:47:00;14.10;59.60
28845;DHT22;15976;47.938;7.758;2024-03-07T14:49:28;14.10;59.40
28845;DHT22;15976;47.938;7.758;2024-03-07T14:51:55;14.20;59.10
28845;DHT22;15976;47.938;7.758;2024-03-07T14:54:27;14.10;59.00
28845;DHT22;15976;47.938;7.758;2024-03-07T14:56:54;13.90;59.70
28845;DHT22;15976;47.938;7.758;2024-03-07T14:59:22;13.80;59.40
28845;DHT22;15976;47.938;7.758;2024-03-07T15:01:51;13.60;59.80
28845;DHT22;15976;47.938;7.758;2024-03-07T15:04:20;13.40;60.20
28845;DHT22;15976;47.938;7.758;2024-03-07T15:06:48;13.30;60.60
28845;DHT22;15976;47.938;7.758;2024-03-07T15:09:15;13.10;60.90
28845;DHT22;15976;47.938;7.758;2024-03-07T15:11:44;13.00;61.20
28845;DHT22;15976;47.938;7.758;2024-03-07T15:14:11;13.10;61.70
28845;DHT22;15976;47.938;7.758;2024-03-07T15:16:51;13.10;61.50
28845;DHT22;15976;47.938;7.758;2024-03-07T15:19:19;13.10;61.50
28845;DHT22;15976;47.938;7.758;2024-03-07T15:21:47;13.00;61.60
28845;DHT22;15976;47.938;7.758;2024-03-07T15:24:15;12.90;61.90
28845;DHT22;15976;47.938;7.758;2024-03-07T15:26:42;12.80;62.20
28845;DHT22;15976;47.938;7.758;2024-03-07T15:29:13;12.70;62.40
28845;DHT22;15976;47.938;7.758;2024-03-07T15:31:42;12.60;62.60
28845;DHT22;15976;47.938;7.758;2024-03-07T15:34:09;12.50;62.90
28845;DHT22;15976;47.938;7.758;2024-03-07T15:36:39;12.60;63.20
28845;DHT22;15976;47.938;7.758;2024-03-07T15:39:08;12.50;63.20
28845;DHT22;15976;47.938;7.758;2024-03-07T15:41:47;12.50;63.20
28845;DHT22;15976;47.938;7.758;2024-03-07T15:44:14;12.50;63.40
28845;DHT22;15976;47.938;7.758;2024-03-07T15:46:42;12.50;64.30
28845;DHT22;15976;47.938;7.758;2024-03-07T15:49:09;12.50;63.70
28845;DHT22;15976;47.938;7.758;2024-03-07T15:51:39;12.40;63.80
28845;DHT22;15976;47.938;7.758;2024-03-07T15:54:06;12.40;64.60
28845;DHT22;15976;47.938;7.758;2024-03-07T15:56:34;12.30;63.90
28845;DHT22;15976;47.938;7.758;2024-03-07T15:59:02;12.30;64.10
28845;DHT22;15976;47.938;7.758;2024-03-07T16:01:29;12.20;64.10
28845;DHT22;15976;47.938;7.758;2024-03-07T16:03:58;12.20;64.20
28845;DHT22;15976;47.938;7.758;2024-03-07T16:06:26;12.00;64.60
28845;DHT22;15976;47.938;7.758;2024-03-07T16:08:53;12.00;65.00
28845;DHT22;15976;47.938;7.758;2024-03-07T16:11:22;11.90;65.30
28845;DHT22;15976;47.938;7.758;2024-03-07T16:13:51;11.80;65.70
28845;DHT22;15976;47.938;7.758;2024-03-07T16:16:19;11.70;66.00
28845;DHT22;15976;47.938;7.758;2024-03-07T16:18:46;11.70;66.10
28845;DHT22;15976;47.938;7.758;2024-03-07T16:21:14;11.70;66.10
28845;DHT22;15976;47.938;7.758;2024-03-07T16:23:41;11.80;66.10
28845;DHT22;15976;47.938;7.758;2024-03-07T16:26:09;11.70;66.10
28845;DHT22;15976;47.938;7.758;2024-03-07T16:28:36;11.70;66.10
28845;DHT22;15976;47.938;7.758;2024-03-07T16:31:03;11.70;66.10
28845;DHT22;15976;47.938;7.758;2024-03-07T16:33:33;11.60;66.20